Time;durP1;ratioP1;P1;durP2;ratioP2;P2;SDS_P1;SDS_P2;PMS_P1;PMS_P2;Temp;Humidity;BMP_temperature;BMP_pressure;BME280_temperature;BME280_humidity;BME280_pressure;Samples;Min_cycle;Max_cycle;Signal;HPM_P1;HPM_P2
2024/01/05 16:35:33;;;;;;;;;1.40;1.00;;;;;19.35;45.64;100338.53;6236929;22;2149809;-81
2024/01/05 16:37:58;;;;;;;;;0.00;0.00;;;;;19.65;45.56;100358.97;6406094;22;45575;-79
2024/01/05 16:40:23;;;;;;;;;1.33;0.00;;;;;19.83;45.45;100364.75;6408230;22;45210;-79
2024/01/05 16:42:49;;;;;;;;;2.00;1.00;;;;;19.91;45.34;100353.28;6407574;22;45415;-79
2024/01/05 16:45:14;;;;;;;;;2.33;1.00;;;;;20.11;45.66;100362.53;6408233;22;45794;-79
2024/01/05 16:47:43;;;;;;;;;0.00;0.00;;;;;20.14;45.63;100347.19;6408520;22;45289;-80
2024/01/05 16:50:11;;;;;;;;;1.00;0.00;;;;;20.37;45.33;100362.16;6408076;22;45330;-80
2024/01/05 16:52:36;;;;;;;;;2.00;1.00;;;;;20.57;45.06;100380.13;6407485;22;45438;-77
2024/01/05 16:55:02;;;;;;;;;2.33;1.00;;;;;20.66;45.34;100375.56;6407689;22;45963;-75
2024/01/05 16:57:28;;;;;;;;;0.67;0.00;;;;;20.78;45.24;100381.22;6407936;22;45275;-75
2024/01/05 16:59:53;;;;;;;;;1.33;0.00;;;;;20.72;44.88;100372.19;6408007;22;45338;-75
2024/01/05 17:02:20;;;;;;;;;0.00;0.00;;;;;20.94;44.64;100384.69;6407501;22;45278;-73
2024/01/05 17:04:46;;;;;;;;;0.00;0.00;;;;;20.96;44.39;100380.84;6407616;22;46399;-74
2024/01/05 17:07:12;;;;;;;;;1.00;1.00;;;;;21.06;44.52;100391.16;6407102;22;45373;-75
2024/01/05 17:09:38;;;;;;;;;0.67;0.00;;;;;21.13;44.54;100401.00;6408492;22;45293;-79
2024/01/05 17:12:04;;;;;;;;;0.00;0.00;;;;;21.10;44.03;100374.94;6379532;22;45312;-84
2024/01/05 17:14:30;;;;;;;;;1.67;1.67;;;;;20.93;44.33;100354.75;6408626;22;45362;-86
2024/01/05 17:16:55;;;;;;;;;0.33;0.00;;;;;21.29;43.98;100400.78;6379431;22;45254;-82
2024/01/05 17:19:21;;;;;;;;;2.00;1.00;;;;;21.28;43.79;100395.69;6408593;22;45311;-81
2024/01/05 17:21:47;;;;;;;;;0.00;0.00;;;;;21.32;43.94;100396.13;6407448;22;45340;-80
2024/01/05 17:24:13;;;;;;;;;0.67;0.00;;;;;21.36;43.87;100403.53;6407719;22;46269;-80
2024/01/05 17:26:39;;;;;;;;;0.67;0.67;;;;;21.26;43.89;100385.28;6407654;22;45173;-79
2024/01/05 17:29:05;;;;;;;;;1.00;0.33;;;;;21.46;43.53;100412.97;6407903;22;45277;-84
2024/01/05 17:31:30;;;;;;;;;1.00;1.00;;;;;21.02;43.51;100338.81;6408643;22;45179;-84
2024/01/05 17:33:56;;;;;;;;;0.00;0.00;;;;;21.49;43.29;100415.25;6407391;22;47320;-84
2024/01/05 17:36:27;;;;;;;;;0.00;0.00;;;;;21.46;43.44;100416.44;6400024;22;55153;-83
2024/01/05 17:38:56;;;;;;;;;2.00;1.00;;;;;21.33;43.60;100395.13;6400957;22;45275;-83
2024/01/05 17:41:21;;;;;;;;;1.00;1.00;;;;;21.51;43.08;100427.31;6371981;22;45324;-82
2024/01/05 17:43:47;;;;;;;;;0.00;0.00;;;;;21.43;43.15;100408.88;6400741;22;45403;-84
2024/01/05 17:46:12;;;;;;;;;1.00;1.00;;;;;21.40;43.25;100407.44;6400600;22;45302;-83
2024/01/05 17:48:38;;;;;;;;;2.00;0.00;;;;;21.40;43.05;100404.78;6400923;22;45408;-86
2024/01/05 17:51:03;;;;;;;;;0.67;0.00;;;;;21.49;43.46;100421.34;6400166;22;45394;-78
2024/01/05 17:53:30;;;;;;;;;0.00;0.00;;;;;21.44;43.31;100407.06;6400059;22;46929;-80
2024/01/05 17:55:56;;;;;;;;;1.00;1.00;;;;;21.33;43.38;100401.25;6400852;22;45521;-86
2024/01/05 17:58:21;;;;;;;;;0.00;0.00;;;;;21.60;43.07;100437.75;6372218;22;45279;-85
2024/01/05 18:00:46;;;;;;;;;0.00;0.00;;;;;21.59;43.55;100441.44;6400411;22;45200;-85
2024/01/05 18:03:12;;;;;;;;;0.00;0.00;;;;;21.62;43.49;100441.84;6400909;22;45316;-84
2024/01/05 18:05:37;;;;;;;;;1.33;1.00;;;;;21.52;43.10;100425.44;6401192;22;45267;-85
2024/01/05 18:08:03;;;;;;;;;1.00;1.00;;;;;21.65;43.22;100440.66;6400520;22;45267;-82
2024/01/05 18:10:28;;;;;;;;;0.00;0.00;;;;;21.49;42.90;100426.66;6371233;22;45198;-79
2024/01/05 18:12:55;;;;;;;;;0.00;0.00;;;;;21.62;43.61;100441.84;6371395;22;54210;-82
2024/01/05 18:15:20;;;;;;;;;3.33;1.00;;;;;21.68;43.54;100458.81;6399138;22;45218;-80
2024/01/05 18:17:46;;;;;;;;;1.00;1.00;;;;;21.71;43.82;100461.09;6399726;22;45292;-84
2024/01/05 18:20:11;;;;;;;;;1.00;1.00;;;;;21.72;43.72;100468.06;6397433;22;45382;-79
2024/01/05 18:22:36;;;;;;;;;0.00;0.00;;;;;21.75;43.56;100466.84;6399597;22;45870;-81
2024/01/05 18:25:02;;;;;;;;;2.00;0.00;;;;;21.63;44.17;100445.31;6400215;22;54564;-81
2024/01/05 18:27:28;;;;;;;;;0.00;0.00;;;;;21.61;43.78;100437.59;6400254;22;45299;-81
2024/01/05 18:29:53;;;;;;;;;1.00;1.00;;;;;21.59;43.52;100436.13;6400108;22;45483;-80
2024/01/05 18:32:19;;;;;;;;;0.00;0.00;;;;;21.82;43.58;100474.84;6399733;22;46079;-80
2024/01/05 18:34:45;;;;;;;;;1.00;1.00;;;;;21.73;43.94;100452.97;6399348;22;45369;-79
2024/01/05 18:37:15;;;;;;;;;0.33;0.33;;;;;21.74;44.10;100459.91;6400457;22;45396;-78
2024/01/05 18:39:41;;;;;;;;;0.00;0.00;;;;;21.84;43.93;100486.91;6400323;22;45369;-78
2024/01/05 18:42:06;;;;;;;;;0.00;0.00;;;;;21.45;43.94;100425.38;6398498;22;46893;-79
2024/01/05 18:44:32;;;;;;;;;2.00;0.00;;;;;21.85;44.10;100485.91;6399749;22;45292;-79
2024/01/05 18:46:57;;;;;;;;;1.00;1.00;;;;;21.81;43.82;100476.69;6398956;22;45237;-79
2024/01/05 18:49:23;;;;;;;;;0.00;0.00;;;;;21.88;43.41;100491.88;6398880;22;45349;-80
2024/01/05 18:51:48;;;;;;;;;1.00;1.00;;;;;21.89;44.01;100490.84;6399899;22;47303;-87
2024/01/05 18:54:15;;;;;;;;;2.00;1.00;;;;;21.89;43.74;100490.84;6401277;22;45295;-88
2024/01/05 18:56:41;;;;;;;;;0.33;0.33;;;;;21.89;43.81;100491.66;6402478;22;45303;-90
2024/01/05 18:59:06;;;;;;;;;2.00;1.00;;;;;21.81;43.51;100481.97;6401934;22;45236;-89
2024/01/05 19:01:32;;;;;;;;;3.00;1.00;;;;;21.87;43.63;100492.81;6401011;22;47310;-88
2024/01/05 19:03:57;;;;;;;;;0.67;0.67;;;;;21.89;43.91;100502.25;6401856;22;45263;-87
2024/01/05 19:06:22;;;;;;;;;2.00;0.00;;;;;21.81;43.45;100494.38;6402339;22;45215;-89
2024/01/05 19:08:48;;;;;;;;;1.00;1.00;;;;;21.76;43.79;100484.38;6403323;22;45302;-87
2024/01/05 19:11:14;;;;;;;;;0.00;0.00;;;;;21.77;43.66;100491.31;6403001;22;46718;-88
2024/01/05 19:13:39;;;;;;;;;3.33;1.00;;;;;21.91;43.45;100516.13;6402227;22;45231;-88
2024/01/05 19:16:08;;;;;;;;;0.00;0.00;;;;;21.85;43.58;100501.78;6401926;22;45425;-86
2024/01/05 19:18:34;;;;;;;;;2.33;1.00;;;;;21.92;43.78;100524.91;6401836;22;45516;-88
2024/01/05 19:21:02;;;;;;;;;0.00;0.00;;;;;21.89;43.81;100519.97;6402509;22;45319;-88
2024/01/05 19:23:27;;;;;;;;;1.00;0.00;;;;;21.92;43.53;100528.38;6402066;22;45408;-89
2024/01/05 19:25:53;;;;;;;;;1.33;0.33;;;;;21.84;43.64;100512.56;6402862;22;45390;-89
2024/01/05 19:28:19;;;;;;;;;2.00;1.00;;;;;21.90;43.75;100519.81;6402476;22;45234;-89
2024/01/05 19:30:45;;;;;;;;;0.00;0.00;;;;;21.93;43.65;100532.69;6402117;22;47142;-86
2024/01/05 19:33:10;;;;;;;;;0.33;0.33;;;;;21.81;43.71;100513.75;6401702;22;45175;-88
2024/01/05 19:35:36;;;;;;;;;0.00;0.00;;;;;21.93;43.32;100527.38;6402612;22;45139;-89
2024/01/05 19:38:01;;;;;;;;;1.00;1.00;;;;;21.93;43.67;100532.69;6401168;22;45392;-88
2024/01/05 19:40:27;;;;;;;;;1.00;1.00;;;;;21.75;43.42;100506.56;6401756;22;45325;-87
2024/01/05 19:42:52;;;;;;;;;0.00;0.00;;;;;21.94;43.31;100533.47;6402122;22;45388;-88
2024/01/05 19:45:18;;;;;;;;;2.33;1.00;;;;;21.80;43.24;100512.13;6402768;22;45317;-87
2024/01/05 19:47:44;;;;;;;;;2.00;1.00;;;;;21.59;43.37;100481.97;6373604;22;45573;-88
2024/01/05 19:50:10;;;;;;;;;0.67;0.67;;;;;21.78;43.19;100514.13;6402390;22;45304;-86
2024/01/05 19:52:35;;;;;;;;;0.50;0.50;;;;;21.94;43.23;100541.41;6400494;22;45390;-87
2024/01/05 19:55:03;;;;;;;;;0.67;0.67;;;;;21.79;43.76;100517.59;6400625;22;45323;-89
2024/01/05 19:57:29;;;;;;;;;0.67;0.67;;;;;21.62;43.29;100486.84;6401426;22;45251;-88
2024/01/05 19:59:54;;;;;;;;;0.33;0.33;;;;;21.55;43.67;100483.31;6377972;22;46684;-86
2024/01/05 20:02:20;;;;;;;;;1.00;1.00;;;;;21.96;43.11;100544.72;6405574;22;45237;-88
2024/01/05 20:04:47;;;;;;;;;1.00;1.00;;;;;21.95;43.06;100546.53;6403482;22;45212;-88
2024/01/05 20:07:13;;;;;;;;;0.67;0.67;;;;;21.73;43.01;100512.03;6404231;22;45637;-88
2024/01/05 20:09:39;;;;;;;;;0.00;0.00;;;;;21.97;43.12;100549.00;6402096;22;45463;-85
2024/01/05 20:12:06;;;;;;;;;1.00;1.00;;;;;21.98;43.16;100555.13;6401455;22;45296;-87
2024/01/05 20:14:32;;;;;;;;;4.00;1.00;;;;;21.75;43.46;100527.75;6374037;22;45299;-90
2024/01/05 20:16:58;;;;;;;;;0.67;0.67;;;;;21.95;42.89;100564.25;6401625;22;45343;-86
2024/01/05 20:19:23;;;;;;;;;0.00;0.00;;;;;21.94;43.17;100562.59;6401814;22;46357;-91
2024/01/05 20:21:49;;;;;;;;;0.67;0.67;;;;;21.65;43.38;100521.94;6400948;22;45174;-88
2024/01/05 20:24:16;;;;;;;;;1.67;0.33;;;;;21.98;43.55;100579.78;6401451;22;45248;-88
2024/01/05 20:26:42;;;;;;;;;0.00;0.00;;;;;21.99;42.90;100585.91;6402316;22;45334;-90
2024/01/05 20:29:07;;;;;;;;;1.00;1.00;;;;;21.66;43.36;100534.97;6402805;22;45584;-89
2024/01/05 20:31:33;;;;;;;;;0.33;0.33;;;;;21.99;43.00;100591.22;6372532;22;45350;-87
2024/01/05 20:33:58;;;;;;;;;2.00;2.00;;;;;22.00;43.69;100593.66;6401601;22;45522;-89
2024/01/05 20:36:24;;;;;;;;;0.33;0.00;;;;;21.99;42.93;100599.97;6401793;22;45394;-87
2024/01/05 20:38:50;;;;;;;;;1.00;1.00;;;;;21.83;43.35;100580.59;6401251;22;45923;-89
2024/01/05 20:41:15;;;;;;;;;1.33;0.33;;;;;21.55;43.53;100538.09;6372173;22;45290;-86
2024/01/05 20:43:40;;;;;;;;;3.00;2.00;;;;;21.69;43.51;100566.38;6398646;22;45354;-83
2024/01/05 20:46:07;;;;;;;;;0.00;0.00;;;;;21.91;43.25;100594.78;6398520;22;45377;-89
2024/01/05 20:48:32;;;;;;;;;0.33;0.33;;;;;22.00;43.13;100611.38;6400635;22;46304;-87
2024/01/05 20:50:58;;;;;;;;;2.00;1.00;;;;;21.87;43.33;100583.72;6400636;22;45390;-87
2024/01/05 20:53:25;;;;;;;;;1.00;1.00;;;;;21.83;43.36;100574.50;6372377;22;45410;-86
2024/01/05 20:55:53;;;;;;;;;0.33;0.33;;;;;22.01;43.22;100610.38;6401260;22;45516;-89
2024/01/05 20:58:19;;;;;;;;;1.00;1.00;;;;;22.00;43.29;100621.97;6400984;22;46905;-88
2024/01/05 21:00:45;;;;;;;;;2.67;0.67;;;;;21.73;43.48;100572.94;6398270;22;45369;-87
2024/01/05 21:03:10;;;;;;;;;0.00;0.00;;;;;21.62;43.48;100553.03;6371765;22;45383;-89
2024/01/05 21:05:36;;;;;;;;;0.33;0.00;;;;;22.01;43.57;100618.34;6400640;22;45371;-89
2024/01/05 21:08:03;;;;;;;;;2.00;1.00;;;;;21.81;43.00;100584.44;6400308;22;46903;-85
2024/01/05 21:10:30;;;;;;;;;0.67;0.67;;;;;22.01;43.02;100610.38;6400589;22;45203;-88
2024/01/05 21:12:55;;;;;;;;;2.00;0.00;;;;;22.00;43.59;100601.59;6402004;22;45320;-88
2024/01/05 21:15:21;;;;;;;;;0.67;0.67;;;;;21.84;43.46;100578.78;6401279;22;45528;-83
2024/01/05 21:17:46;;;;;;;;;1.00;1.00;;;;;22.01;42.94;100605.91;6372834;22;48740;-85
2024/01/05 21:20:11;;;;;;;;;0.33;0.33;;;;;21.78;43.47;100582.97;6401885;22;45429;-84
2024/01/05 21:22:37;;;;;;;;;1.00;1.00;;;;;21.90;43.63;100596.63;6401438;22;45352;-81
2024/01/05 21:25:05;;;;;;;;;0.00;0.00;;;;;22.02;43.81;100620.78;6372311;22;45372;-83
2024/01/05 21:27:31;;;;;;;;;2.00;2.00;;;;;21.95;43.60;100607.47;6400344;22;46153;-84
2024/01/05 21:29:57;;;;;;;;;1.00;0.33;;;;;22.03;43.24;100627.75;6372123;22;45781;-85
2024/01/05 21:32:23;;;;;;;;;1.00;1.00;;;;;21.68;43.09;100572.66;6401087;22;45271;-80
2024/01/05 21:34:48;;;;;;;;;2.00;1.00;;;;;21.88;43.37;100603.94;6401189;22;45474;-85
2024/01/05 21:37:14;;;;;;;;;0.00;0.00;;;;;22.03;43.05;100626.91;6401554;22;45197;-83
2024/01/05 21:39:40;;;;;;;;;1.67;0.67;;;;;21.68;43.28;100579.78;6401934;22;45208;-85
2024/01/05 21:42:07;;;;;;;;;0.67;0.67;;;;;21.79;43.31;100589.09;6401655;22;45224;-87
2024/01/05 21:44:32;;;;;;;;;1.00;1.00;;;;;21.62;43.13;100584.81;6373498;22;45448;-85
2024/01/05 21:46:58;;;;;;;;;2.67;1.33;;;;;22.05;43.14;100638.13;6401699;22;45419;-84
2024/01/05 21:49:26;;;;;;;;;2.00;1.00;;;;;22.04;42.93;100642.59;6400902;22;45237;-86
2024/01/05 21:51:53;;;;;;;;;0.67;0.67;;;;;21.82;43.17;100617.88;6400629;22;45228;-76
2024/01/05 21:54:20;;;;;;;;;1.00;1.00;;;;;21.85;43.56;100612.22;6400193;22;45242;-81
2024/01/05 21:56:45;;;;;;;;;2.00;1.33;;;;;22.09;43.56;100651.84;6399151;22;45494;-79
2024/01/05 21:59:10;;;;;;;;;1.67;1.67;;;;;22.10;45.03;100641.06;6400923;22;45233;-80
2024/01/05 22:01:36;;;;;;;;;4.00;1.00;;;;;21.96;45.23;100625.00;6401156;22;45766;-81
2024/01/05 22:04:03;;;;;;;;;4.67;3.00;;;;;22.12;45.50;100654.94;6401149;22;45205;-78
2024/01/05 22:06:31;;;;;;;;;1.67;1.67;;;;;22.13;45.66;100647.81;6371788;22;47693;-81
2024/01/05 22:08:57;;;;;;;;;1.33;1.33;;;;;22.07;45.10;100644.06;6400669;22;45264;-81
2024/01/05 22:11:24;;;;;;;;;1.67;1.67;;;;;22.13;45.25;100651.28;6371085;22;45269;-80
2024/01/05 22:13:49;;;;;;;;;1.67;1.67;;;;;22.14;45.63;100655.59;6400004;22;45469;-75
2024/01/05 22:16:18;;;;;;;;;0.67;0.67;;;;;22.14;45.87;100657.41;6400373;22;45872;-77
2024/01/05 22:18:45;;;;;;;;;3.00;1.00;;;;;22.13;45.10;100659.22;6400293;22;45302;-79
2024/01/05 22:21:11;;;;;;;;;0.67;0.67;;;;;21.90;45.29;100623.09;6400385;22;45474;-77
2024/01/05 22:23:37;;;;;;;;;6.33;4.67;;;;;22.13;42.96;100661.88;6370652;22;45473;-78
2024/01/05 22:26:03;;;;;;;;;7.67;7.00;;;;;22.04;40.81;100660.34;6398725;22;46006;-78
2024/01/05 22:28:28;;;;;;;;;7.67;7.00;;;;;21.78;39.99;100645.72;6400065;22;45332;-79
2024/01/05 22:30:54;;;;;;;;;8.33;8.00;;;;;21.52;39.53;100640.69;6400252;22;55518;-79
2024/01/05 22:33:20;;;;;;;;;7.00;7.00;;;;;21.09;39.09;100596.31;6400828;22;45420;-79
2024/01/05 22:35:46;;;;;;;;;9.00;9.00;;;;;21.30;38.85;100658.28;6399957;22;46196;-79
2024/01/05 22:38:11;;;;;;;;;9.00;8.33;;;;;21.19;38.27;100662.19;6400740;22;45386;-79
2024/01/05 22:40:37;;;;;;;;;11.67;9.00;;;;;21.04;38.09;100667.44;6371284;22;45449;-78
2024/01/05 22:43:03;;;;;;;;;10.67;10.00;;;;;20.85;38.68;100654.50;6400492;22;45761;-80
2024/01/05 22:45:28;;;;;;;;;8.00;7.00;;;;;20.96;38.87;100673.59;6400310;22;47045;-80
2024/01/05 22:47:53;;;;;;;;;10.00;8.00;;;;;20.90;39.25;100650.47;6400118;22;45253;-79
2024/01/05 22:50:19;;;;;;;;;7.00;7.00;;;;;21.05;39.11;100669.09;6400452;22;45291;-80
2024/01/05 22:52:44;;;;;;;;;5.00;5.00;;;;;21.09;39.62;100664.25;6400813;22;45325;-79
2024/01/05 22:55:09;;;;;;;;;7.33;6.33;;;;;21.02;39.98;100649.13;6399880;22;48168;-79
2024/01/05 22:57:34;;;;;;;;;4.33;4.33;;;;;21.01;40.10;100643.94;6400656;22;45244;-79
2024/01/05 23:00:00;;;;;;;;;6.00;6.00;;;;;21.08;39.82;100649.41;6400860;22;45357;-79
2024/01/05 23:02:26;;;;;;;;;5.67;5.67;;;;;21.20;40.56;100669.13;6399984;22;45399;-79
2024/01/05 23:04:51;;;;;;;;;4.33;4.33;;;;;21.18;40.42;100658.72;6400617;22;46319;-79
2024/01/05 23:07:16;;;;;;;;;8.00;5.33;;;;;21.05;40.45;100637.34;6400607;22;45376;-79
2024/01/05 23:09:42;;;;;;;;;8.00;6.00;;;;;21.08;40.46;100633.53;6400323;22;45180;-79
2024/01/05 23:12:07;;;;;;;;;4.67;4.00;;;;;20.93;40.60;100623.69;6400273;22;45457;-79
2024/01/05 23:14:33;;;;;;;;;5.33;5.33;;;;;21.14;40.27;100640.72;6399914;22;46028;-79
2024/01/05 23:16:58;;;;;;;;;5.00;5.00;;;;;21.36;40.07;100672.63;6400429;22;45177;-79
2024/01/05 23:19:24;;;;;;;;;5.67;4.33;;;;;21.39;40.08;100680.22;6400788;22;45278;-79
2024/01/05 23:21:49;;;;;;;;;0.67;0.00;;;;;21.39;40.12;100672.28;6400521;22;45483;-79
2024/01/05 23:24:15;;;;;;;;;5.00;4.00;;;;;21.37;40.31;100663.66;6399070;22;52209;-79
2024/01/05 23:26:40;;;;;;;;;4.00;4.00;;;;;21.17;40.52;100635.09;6371145;22;45360;-79
2024/01/05 23:29:08;;;;;;;;;6.00;4.67;;;;;21.44;40.87;100671.72;6400660;22;45263;-79
2024/01/05 23:31:40;;;;;;;;;4.00;4.00;;;;;21.45;40.53;100681.28;6399996;22;45301;-79
2024/01/05 23:34:05;;;;;;;;;4.33;4.00;;;;;21.22;40.37;100651.25;6399143;22;46008;-79
2024/01/05 23:36:31;;;;;;;;;4.67;4.00;;;;;21.29;40.67;100657.47;6399764;22;45219;-79
2024/01/05 23:38:57;;;;;;;;;3.00;3.00;;;;;21.44;40.60;100683.16;6400349;22;45337;-79
2024/01/05 23:41:22;;;;;;;;;2.67;2.67;;;;;21.45;41.02;100679.47;6371840;22;45401;-79
2024/01/05 23:43:47;;;;;;;;;3.00;3.00;;;;;21.45;40.76;100684.78;6399565;22;46317;-79
2024/01/05 23:46:13;;;;;;;;;4.33;4.33;;;;;21.39;41.03;100678.38;6399391;22;52967;-79
2024/01/05 23:48:38;;;;;;;;;3.00;3.00;;;;;21.46;40.94;100686.44;6400038;22;46866;-79
2024/01/05 23:51:03;;;;;;;;;9.33;4.33;;;;;21.46;40.55;100689.06;6400394;22;45392;-79
2024/01/05 23:53:29;;;;;;;;;5.67;3.67;;;;;21.34;40.87;100670.16;6399323;22;46780;-79
2024/01/05 23:55:54;;;;;;;;;4.00;3.00;;;;;21.46;41.01;100686.44;6371303;22;45240;-79
2024/01/05 23:58:19;;;;;;;;;4.00;4.00;;;;;21.47;40.85;100687.22;6399672;22;49445;-79
